Time;durP1;ratioP1;P1;durP2;ratioP2;P2;SDS_P1;SDS_P2;PMS_P1;PMS_P2;Temp;Humidity;BMP_temperature;BMP_pressure;BME280_temperature;BME280_humidity;BME280_pressure;Samples;Min_cycle;Max_cycle;Signal;HPM_P1;HPM_P2
2022/06/11 00:01:46;;;;;;;;;5.00;5.00;;;;;21.80;100.00;101876.09;5076901;28;45293;-78
2022/06/11 00:04:19;;;;;;;;;3.75;3.75;;;;;21.76;100.00;101871.63;5075740;28;45299;-78
2022/06/11 00:06:48;;;;;;;;;6.00;5.25;;;;;21.71;100.00;101874.19;5081031;28;45316;-78
2022/06/11 00:09:15;;;;;;;;;4.50;4.50;;;;;21.69;100.00;101867.16;5081601;28;46212;-78
2022/06/11 00:11:41;;;;;;;;;6.00;5.00;;;;;21.66;100.00;101865.34;5077640;28;45324;-78
2022/06/11 00:14:08;;;;;;;;;6.00;6.00;;;;;21.63;100.00;101866.19;5076087;28;45359;-79
2022/06/11 00:16:34;;;;;;;;;6.50;4.50;;;;;21.65;100.00;101880.25;5077649;28;45522;-79
2022/06/11 00:19:01;;;;;;;;;5.75;4.25;;;;;21.66;100.00;101875.91;5075980;28;45477;-78
2022/06/11 00:21:31;;;;;;;;;4.75;3.25;;;;;21.58;100.00;101870.47;5077361;28;45261;-79
2022/06/11 00:23:57;;;;;;;;;4.25;4.25;;;;;21.59;100.00;101874.03;5077436;28;45340;-78
2022/06/11 00:26:23;;;;;;;;;6.50;4.00;;;;;21.59;100.00;101868.75;5076497;28;45616;-77
2022/06/11 00:28:49;;;;;;;;;4.25;4.00;;;;;21.58;100.00;101874.84;5058504;28;47285;-77
2022/06/11 00:31:15;;;;;;;;;4.00;4.00;;;;;21.56;100.00;101882.72;5076475;28;45763;-76
2022/06/11 00:33:41;;;;;;;;;5.00;4.00;;;;;21.55;100.00;101874.81;5076600;28;45203;-78
2022/06/11 00:36:09;;;;;;;;;5.00;5.00;;;;;21.49;100.00;101867.69;5076808;28;45551;-77
2022/06/11 00:38:36;;;;;;;;;4.75;4.75;;;;;21.46;100.00;101868.53;5076691;27;46162;-77
2022/06/11 00:41:03;;;;;;;;;7.00;6.25;;;;;21.46;100.00;101873.78;5076114;28;45440;-78
2022/06/11 00:43:29;;;;;;;;;6.00;5.00;;;;;21.42;100.00;101868.44;5058746;28;45327;-77
2022/06/11 00:46:18;;;;;;;;;5.00;5.00;;;;;21.40;100.00;101867.53;5076838;27;45174;-77
2022/06/11 00:48:44;;;;;;;;;6.00;5.50;;;;;21.33;100.00;101867.41;5076652;28;45518;-77
2022/06/11 00:51:20;;;;;;;;;5.00;5.00;;;;;21.33;100.00;101867.41;5080371;28;45339;-79
2022/06/11 00:53:51;;;;;;;;;5.50;5.50;;;;;21.32;100.00;101876.19;5082753;28;45359;-78
2022/06/11 00:56:30;;;;;;;;;4.25;3.75;;;;;21.28;100.00;101868.19;5076564;28;45258;-77
2022/06/11 00:59:00;;;;;;;;;4.75;4.75;;;;;21.21;100.00;101859.31;5080143;28;45881;-77
2022/06/11 01:01:28;;;;;;;;;7.00;6.00;;;;;21.30;100.00;101872.66;5077156;28;45660;-78
2022/06/11 01:03:58;;;;;;;;;5.75;5.00;;;;;21.27;100.00;101876.97;5077014;28;45659;-77
2022/06/11 01:06:42;;;;;;;;;7.00;6.00;;;;;21.18;100.00;101859.25;5077123;27;45426;-78
2022/06/11 01:09:46;;;;;;;;;7.25;5.50;;;;;21.20;100.00;101868.09;5075237;28;45371;-77
2022/06/11 01:12:50;;;;;;;;;6.00;3.75;;;;;21.19;100.00;101871.56;5075560;28;45829;-77
2022/06/11 01:15:32;;;;;;;;;5.25;4.00;;;;;21.17;100.00;101863.63;5070930;28;45532;-78
2022/06/11 01:18:09;;;;;;;;;4.75;4.75;;;;;21.09;100.00;101853.84;5077042;28;45430;-77
2022/06/11 01:20:53;;;;;;;;;3.75;3.50;;;;;21.11;100.00;101863.53;5075996;28;46620;-77
2022/06/11 01:24:10;;;;;;;;;5.75;4.50;;;;;21.02;100.00;101863.38;5075842;28;45348;-77
2022/06/11 01:26:48;;;;;;;;;4.25;3.00;;;;;20.96;100.00;101852.69;5033161;28;45458;-78
2022/06/11 01:29:50;;;;;;;;;5.75;4.00;;;;;21.02;100.00;101872.13;5076270;27;45431;-77
2022/06/11 01:32:37;;;;;;;;;2.25;2.25;;;;;21.01;100.00;101864.22;5075819;27;46548;-77
2022/06/11 01:35:08;;;;;;;;;3.00;3.00;;;;;20.99;100.00;101856.31;5057564;28;45666;-77
2022/06/11 01:38:04;;;;;;;;;4.00;4.00;;;;;20.97;100.00;101860.66;5080222;27;45185;-76
2022/06/11 01:41:09;;;;;;;;;4.25;4.25;;;;;20.93;100.00;101853.53;5080284;28;45415;-77
2022/06/11 01:43:41;;;;;;;;;3.25;3.25;;;;;20.97;100.00;101862.38;5024790;28;45617;-77
2022/06/11 01:46:17;;;;;;;;;2.50;2.50;;;;;20.90;100.00;101864.00;5077138;28;45288;-77
2022/06/11 01:49:02;;;;;;;;;4.00;3.00;;;;;20.91;100.00;101863.16;5079405;27;45309;-78
2022/06/11 01:51:37;;;;;;;;;4.00;4.00;;;;;20.92;100.00;101869.31;5080156;28;45227;-77
2022/06/11 01:54:08;;;;;;;;;3.00;3.00;;;;;20.89;100.00;101880.69;5079061;28;45274;-77
2022/06/11 01:56:42;;;;;;;;;4.00;4.00;;;;;20.86;100.00;101872.72;5079219;28;45743;-77
2022/06/11 01:59:37;;;;;;;;;5.25;5.25;;;;;20.85;100.00;101884.09;5078767;28;45508;-78
2022/06/11 02:02:28;;;;;;;;;5.50;5.50;;;;;20.80;100.00;101869.94;5061077;28;45339;-78
2022/06/11 02:05:11;;;;;;;;;5.75;5.00;;;;;20.81;100.00;101880.53;5063842;28;45640;-79
2022/06/11 02:07:59;;;;;;;;;4.75;4.75;;;;;20.78;100.00;101875.19;5078635;28;45677;-77
2022/06/11 02:10:24;;;;;;;;;5.00;5.00;;;;;20.81;100.00;101879.63;5079578;28;45417;-77
2022/06/11 02:13:07;;;;;;;;;4.00;4.00;;;;;20.77;100.00;101877.81;5078963;28;45636;-77
2022/06/11 02:15:48;;;;;;;;;6.25;5.50;;;;;20.72;100.00;101872.44;5079244;27;46438;-77
2022/06/11 02:18:18;;;;;;;;;4.00;3.00;;;;;20.73;100.00;101877.72;5078813;27;45704;-77
2022/06/11 02:20:55;;;;;;;;;5.25;3.50;;;;;20.71;100.00;101871.53;5080500;28;45260;-80
2022/06/11 02:23:35;;;;;;;;;4.00;4.00;;;;;20.71;100.00;101879.41;5087465;28;45417;-78
2022/06/11 02:26:09;;;;;;;;;3.50;3.50;;;;;20.69;100.00;101880.25;5086404;27;45399;-77
2022/06/11 02:28:40;;;;;;;;;6.75;5.50;;;;;20.68;100.00;101878.47;5081267;28;45731;-78
2022/06/11 02:31:11;;;;;;;;;6.00;5.00;;;;;20.67;100.00;101877.59;5078915;28;45360;-78
2022/06/11 02:33:39;;;;;;;;;4.00;4.00;;;;;20.65;100.00;101873.13;5078427;28;45173;-78
2022/06/11 02:36:16;;;;;;;;;3.50;3.00;;;;;20.68;100.00;101875.84;5078478;27;45547;-78
2022/06/11 02:38:41;;;;;;;;;3.00;3.00;;;;;20.67;100.00;101879.31;5078641;28;45315;-77
2022/06/11 02:41:17;;;;;;;;;4.25;4.25;;;;;20.66;100.00;101877.53;5078541;28;45413;-78
2022/06/11 02:43:44;;;;;;;;;5.25;5.00;;;;;20.65;100.00;101891.56;5060561;28;45303;-77
2022/06/11 02:48:55;;;;;;;;;6.25;5.75;;;;;20.61;100.00;101889.75;5078397;27;45369;-77
2022/06/11 02:51:24;;;;;;;;;4.75;4.75;;;;;20.61;100.00;101890.59;5078333;27;45263;-77
2022/06/11 02:53:50;;;;;;;;;4.25;4.25;;;;;20.59;100.00;101889.69;5078707;28;46221;-77
2022/06/11 02:56:16;;;;;;;;;5.75;5.75;;;;;20.56;100.00;101893.16;5077637;27;45532;-76
2022/06/11 02:58:42;;;;;;;;;7.25;5.50;;;;;20.59;100.00;101894.06;5057978;28;45450;-77
2022/06/11 03:01:08;;;;;;;;;7.00;6.75;;;;;20.57;100.00;101899.31;5040875;28;45320;-76
2022/06/11 03:03:35;;;;;;;;;6.25;6.25;;;;;20.54;100.00;101902.75;5061469;28;45334;-76
2022/06/11 03:06:02;;;;;;;;;4.25;4.25;;;;;20.51;100.00;101904.44;5061368;28;45624;-78
2022/06/11 03:08:27;;;;;;;;;6.00;5.00;;;;;20.48;100.00;101909.63;5081073;28;45405;-78
2022/06/11 03:10:56;;;;;;;;;5.25;5.25;;;;;20.44;100.00;101910.44;5078614;27;45219;-78
2022/06/11 03:13:23;;;;;;;;;5.00;5.00;;;;;20.41;100.00;101912.13;5059860;28;45489;-77
2022/06/11 03:15:49;;;;;;;;;5.00;5.00;;;;;20.35;100.00;101904.13;5077693;28;45480;-78
2022/06/11 03:18:14;;;;;;;;;4.25;4.25;;;;;20.31;100.00;101902.25;5077749;28;45257;-77
2022/06/11 03:20:40;;;;;;;;;4.00;4.00;;;;;20.31;100.00;101907.53;5078212;27;45239;-78
2022/06/11 03:23:07;;;;;;;;;5.00;5.00;;;;;20.24;100.00;101900.38;5077807;28;45561;-78
2022/06/11 03:25:34;;;;;;;;;5.00;4.00;;;;;20.19;100.00;101902.88;5078131;27;45222;-77
2022/06/11 03:28:06;;;;;;;;;4.00;4.00;;;;;20.15;100.00;101908.03;5077508;27;45481;-77
2022/06/11 03:30:32;;;;;;;;;6.25;6.25;;;;;20.05;100.00;101905.19;5059840;28;45413;-77
2022/06/11 03:32:57;;;;;;;;;4.25;4.25;;;;;20.06;100.00;101904.34;5078351;27;45260;-77
2022/06/11 03:35:23;;;;;;;;;5.00;4.75;;;;;20.03;100.00;101908.63;5077421;28;46672;-78
2022/06/11 03:37:48;;;;;;;;;4.00;4.00;;;;;19.94;100.00;101898.78;5076752;28;45497;-77
2022/06/11 03:40:14;;;;;;;;;4.75;4.75;;;;;19.99;100.00;101907.69;5077384;27;45231;-77
2022/06/11 03:42:40;;;;;;;;;6.00;4.00;;;;;20.03;100.00;101925.28;5077901;28;45469;-78
2022/06/11 03:45:06;;;;;;;;;5.50;5.00;;;;;20.01;100.00;101919.13;5077029;27;45887;-77
2022/06/11 03:47:33;;;;;;;;;6.00;5.00;;;;;20.00;100.00;101927.88;5077273;27;46161;-78
2022/06/11 03:49:59;;;;;;;;;5.00;5.00;;;;;19.97;100.00;101934.78;5077684;28;45445;-79
2022/06/11 03:52:27;;;;;;;;;5.50;5.00;;;;;19.90;100.00;101932.00;5083774;28;45219;-78
2022/06/11 03:54:55;;;;;;;;;5.75;5.00;;;;;19.82;100.00;101930.91;5083205;28;45651;-78
2022/06/11 03:57:21;;;;;;;;;7.50;4.75;;;;;19.83;100.00;101944.91;5079884;27;45426;-79
2022/06/11 03:59:46;;;;;;;;;7.00;5.00;;;;;19.81;100.00;101942.25;5081786;27;44793;-79
2022/06/11 04:02:12;;;;;;;;;5.25;5.25;;;;;19.75;100.00;101936.88;5080391;28;45418;-78
2022/06/11 04:04:37;;;;;;;;;5.00;4.25;;;;;19.71;100.00;101938.50;5079863;28;45336;-81
2022/06/11 04:07:04;;;;;;;;;9.00;6.00;;;;;19.70;100.00;101947.25;5077035;28;45509;-80
2022/06/11 04:09:34;;;;;;;;;7.50;5.50;;;;;19.69;100.00;101948.09;5076834;28;45349;-78
2022/06/11 04:12:01;;;;;;;;;6.00;6.00;;;;;19.75;100.00;101956.13;5077471;28;45250;-78
2022/06/11 04:14:27;;;;;;;;;6.00;4.00;;;;;19.75;100.00;101964.00;5058297;28;47957;-78
2022/06/11 04:17:01;;;;;;;;;4.75;4.75;;;;;19.77;100.00;101966.66;5076819;28;45401;-77
2022/06/11 04:19:34;;;;;;;;;6.00;5.00;;;;;19.76;100.00;101965.78;5077520;27;45432;-78
2022/06/11 04:22:00;;;;;;;;;6.50;5.00;;;;;19.78;100.00;101973.72;5076614;28;45528;-77
2022/06/11 04:24:28;;;;;;;;;6.00;5.00;;;;;19.74;100.00;101966.63;5077195;28;45410;-78
2022/06/11 04:26:57;;;;;;;;;4.25;4.25;;;;;19.71;100.00;101975.28;5077177;28;45633;-81
2022/06/11 04:29:28;;;;;;;;;6.25;4.75;;;;;19.70;100.00;101975.25;5076037;28;45353;-77
2022/06/11 04:31:57;;;;;;;;;6.00;5.00;;;;;19.70;100.00;101978.78;5077757;28;45318;-78
2022/06/11 04:34:29;;;;;;;;;5.00;5.00;;;;;19.74;100.00;101985.00;5074858;28;46086;-78
2022/06/11 04:36:55;;;;;;;;;6.25;5.00;;;;;19.70;100.00;101977.88;5060007;28;45632;-77
2022/06/11 04:39:25;;;;;;;;;5.50;5.50;;;;;19.69;100.00;101992.78;5080763;27;45335;-78
2022/06/11 04:41:52;;;;;;;;;5.00;5.00;;;;;19.65;100.00;101994.41;5080547;28;45277;-79
2022/06/11 04:44:18;;;;;;;;;6.25;6.25;;;;;19.63;100.00;101995.22;5077255;27;46023;-79
2022/06/11 04:46:44;;;;;;;;;6.00;6.00;;;;;19.62;100.00;102002.22;5077017;28;45349;-79
2022/06/11 04:49:11;;;;;;;;;6.25;6.25;;;;;19.58;100.00;101988.97;5076734;28;45270;-79
2022/06/11 04:51:37;;;;;;;;;8.00;7.00;;;;;19.63;100.00;102001.38;5076993;28;45402;-79
2022/06/11 04:54:03;;;;;;;;;6.00;6.00;;;;;19.64;100.00;101990.03;5076308;27;45883;-79
2022/06/11 04:56:30;;;;;;;;;5.25;5.25;;;;;19.60;100.00;101987.25;5076622;28;45362;-79
2022/06/11 04:58:57;;;;;;;;;6.00;4.75;;;;;19.68;100.00;102000.59;5076432;28;45422;-79
2022/06/11 05:01:23;;;;;;;;;6.25;5.50;;;;;19.67;100.00;101993.56;5076741;28;45375;-79
2022/06/11 05:03:49;;;;;;;;;7.75;5.75;;;;;19.64;100.00;101995.28;5075831;27;45489;-79
2022/06/11 05:06:17;;;;;;;;;5.75;5.75;;;;;19.68;100.00;101998.88;5076647;27;45628;-78
2022/06/11 05:08:44;;;;;;;;;6.50;5.75;;;;;19.72;100.00;102003.34;5078599;28;45307;-79
2022/06/11 05:11:10;;;;;;;;;4.75;4.75;;;;;19.75;100.00;102002.56;5059511;28;45552;-79
2022/06/11 05:13:36;;;;;;;;;6.50;4.25;;;;;19.79;100.00;102007.03;5076385;27;45418;-79
2022/06/11 05:16:02;;;;;;;;;7.00;6.00;;;;;19.79;100.00;102002.66;5076372;28;45475;-79
2022/06/11 05:18:30;;;;;;;;;6.00;6.00;;;;;19.81;100.00;101997.44;5076407;28;45434;-79
2022/06/11 05:20:56;;;;;;;;;6.25;6.25;;;;;19.78;100.00;102010.50;5084268;28;45232;-79
2022/06/11 05:23:22;;;;;;;;;8.50;6.75;;;;;19.76;100.00;101999.97;5085973;27;46280;-79
2022/06/11 05:25:49;;;;;;;;;6.25;5.50;;;;;19.78;100.00;102003.53;5082283;28;45365;-79
2022/06/11 05:28:23;;;;;;;;;9.00;6.00;;;;;19.81;100.00;102010.59;5080558;27;45349;-80
2022/06/11 05:30:49;;;;;;;;;4.50;4.25;;;;;19.79;100.00;102000.03;5062399;28;45500;-80
2022/06/11 05:33:16;;;;;;;;;9.00;5.25;;;;;19.83;100.00;102000.09;5079391;27;45360;-80
2022/06/11 05:35:42;;;;;;;;;7.25;6.00;;;;;19.81;100.00;101981.69;5078410;27;45743;-79
2022/06/11 05:38:12;;;;;;;;;6.50;6.25;;;;;19.87;100.00;101995.00;5061564;28;45328;-80
2022/06/11 05:40:41;;;;;;;;;8.50;7.00;;;;;19.88;100.00;101988.88;5079186;27;45478;-80
2022/06/11 05:43:08;;;;;;;;;5.75;5.75;;;;;19.87;100.00;101988.88;5079660;27;46459;-80
2022/06/11 05:45:58;;;;;;;;;7.25;5.75;;;;;19.92;100.00;101997.75;5061312;28;45725;-80
2022/06/11 05:48:36;;;;;;;;;6.75;5.25;;;;;19.91;100.00;101990.72;5079899;28;45402;-80
2022/06/11 05:51:02;;;;;;;;;6.25;6.25;;;;;19.88;100.00;101986.25;5079746;28;45430;-80
2022/06/11 05:53:32;;;;;;;;;4.50;4.00;;;;;19.91;100.00;101996.84;5072572;27;45571;-80
2022/06/11 05:56:00;;;;;;;;;5.50;5.50;;;;;20.00;100.00;102004.09;5061109;28;45667;-80
2022/06/11 05:58:31;;;;;;;;;7.00;4.75;;;;;20.00;100.00;101998.84;5079729;27;45424;-80
2022/06/11 06:00:58;;;;;;;;;4.00;4.00;;;;;20.07;100.00;102006.00;5061091;28;45469;-79
2022/06/11 06:03:23;;;;;;;;;4.00;4.00;;;;;20.12;100.00;102010.50;5061206;28;47685;-81
2022/06/11 06:05:49;;;;;;;;;9.00;5.00;;;;;20.14;100.00;102006.19;5062794;28;45315;-81
2022/06/11 06:08:15;;;;;;;;;4.75;4.50;;;;;20.02;100.00;101989.25;5066228;28;45396;-79
2022/06/11 06:10:40;;;;;;;;;5.25;3.25;;;;;20.13;100.00;102007.91;5081367;28;45490;-80
2022/06/11 06:13:45;;;;;;;;;4.25;3.75;;;;;20.12;100.00;101998.25;5062039;28;47038;-79
2022/06/11 06:15:52;;;;;;;;;3.50;3.50;;;;;20.17;100.00;102007.16;5078105;27;45739;-81
2022/06/11 06:18:20;;;;;;;;;5.00;5.00;;;;;20.22;100.00;102010.75;5060173;28;45386;-81
2022/06/11 06:20:46;;;;;;;;;3.25;3.25;;;;;20.21;100.00;102008.97;5078139;27;45518;-81
2022/06/11 06:23:12;;;;;;;;;4.25;4.25;;;;;20.26;100.00;102007.38;5077592;28;46247;-81
2022/06/11 06:25:38;;;;;;;;;4.00;4.00;;;;;20.27;100.00;102013.50;5077983;28;45398;-81
2022/06/11 06:28:04;;;;;;;;;6.75;6.00;;;;;20.34;100.00;102017.16;5077682;28;45341;-80
2022/06/11 06:30:30;;;;;;;;;9.50;6.00;;;;;20.30;100.00;102013.56;5059970;28;45576;-81
2022/06/11 06:32:56;;;;;;;;;3.00;3.00;;;;;20.36;100.00;102018.97;5077499;28;45586;-81
2022/06/11 06:35:21;;;;;;;;;6.50;5.00;;;;;20.39;100.00;102023.44;5059195;28;45440;-80
2022/06/11 06:37:47;;;;;;;;;4.75;4.00;;;;;20.39;100.00;102015.53;5077709;28;45405;-80
2022/06/11 06:40:13;;;;;;;;;4.00;4.00;;;;;20.36;100.00;102012.84;5077752;27;45581;-80
2022/06/11 06:42:38;;;;;;;;;5.00;4.00;;;;;20.37;100.00;102012.00;5077493;28;45424;-80
2022/06/11 06:45:04;;;;;;;;;5.00;3.25;;;;;20.41;100.00;102019.06;5059131;28;45356;-79
2022/06/11 06:47:30;;;;;;;;;5.75;3.75;;;;;20.46;100.00;102008.69;5077814;28;45307;-79
2022/06/11 06:49:56;;;;;;;;;3.25;3.25;;;;;20.62;100.00;102020.44;5060490;28;45386;-80
2022/06/11 06:52:22;;;;;;;;;3.25;3.00;;;;;20.72;100.00;102020.69;5085674;28;45375;-80
2022/06/11 06:54:47;;;;;;;;;4.00;4.00;;;;;20.85;100.00;102026.25;5083095;28;45653;-80
2022/06/11 06:57:13;;;;;;;;;4.00;4.00;;;;;20.93;100.00;102026.41;5078326;28;45473;-81
2022/06/11 06:59:39;;;;;;;;;6.25;4.50;;;;;20.99;100.00;102016.00;5078785;28;45414;-81
2022/06/11 07:02:04;;;;;;;;;3.50;3.00;;;;;21.00;100.00;102026.56;5059362;28;46676;-81
2022/06/11 07:04:30;;;;;;;;;2.75;2.75;;;;;20.99;100.00;102027.44;5077425;27;45362;-81
2022/06/11 07:06:55;;;;;;;;;2.25;2.25;;;;;20.98;100.00;102017.75;5078770;27;45318;-81
2022/06/11 07:09:21;;;;;;;;;3.25;3.25;;;;;21.13;100.00;102026.81;5079106;27;45409;-80
2022/06/11 07:11:48;;;;;;;;;4.00;4.00;;;;;21.14;100.00;102016.34;5081656;27;45955;-81
2022/06/11 07:14:15;;;;;;;;;4.50;3.00;;;;;21.27;100.00;102021.84;5045070;28;1394034;-81
2022/06/11 07:16:51;;;;;;;;;4.00;3.00;;;;;21.40;100.00;102021.22;5081899;28;45462;-81
2022/06/11 07:19:22;;;;;;;;;3.75;3.75;;;;;21.45;100.00;102027.47;5079555;27;45438;-81
2022/06/11 07:21:52;;;;;;;;;3.00;2.75;;;;;21.56;100.00;102029.41;5078650;27;45653;-80
2022/06/11 07:24:24;;;;;;;;;2.75;2.75;;;;;21.58;100.00;102025.94;5078903;28;45606;-81
2022/06/11 07:26:54;;;;;;;;;4.00;2.50;;;;;21.59;98.38;102022.50;5080274;28;45305;-80
2022/06/11 07:29:28;;;;;;;;;3.00;2.25;;;;;21.65;97.36;102030.50;5079258;27;45172;-80
2022/06/11 07:32:01;;;;;;;;;4.00;2.75;;;;;21.70;94.86;102032.34;5078174;28;45278;-80
2022/06/11 07:34:27;;;;;;;;;3.50;2.50;;;;;21.70;93.35;102025.34;5061640;28;45668;-80
2022/06/11 07:36:56;;;;;;;;;2.75;2.75;;;;;21.76;93.52;102029.78;5061027;28;45315;-81
2022/06/11 07:39:22;;;;;;;;;2.50;2.50;;;;;21.77;90.39;102026.31;5065908;28;45474;-81
2022/06/11 07:41:48;;;;;;;;;3.00;2.00;;;;;21.85;89.42;102037.91;5083209;27;45996;-81
2022/06/11 07:44:14;;;;;;;;;2.00;2.00;;;;;21.92;88.52;102041.53;5060974;28;45437;-81
2022/06/11 07:46:39;;;;;;;;;1.25;1.25;;;;;22.00;87.72;102033.72;5079578;28;45304;-80
2022/06/11 07:49:05;;;;;;;;;2.00;2.00;;;;;22.00;86.68;102034.63;5078268;28;45455;-81
2022/06/11 07:51:37;;;;;;;;;3.75;3.00;;;;;22.01;84.83;102017.94;5078427;28;45283;-80
2022/06/11 07:54:02;;;;;;;;;1.00;1.00;;;;;21.95;85.05;102007.28;5077610;27;45446;-79
2022/06/11 07:56:28;;;;;;;;;2.50;1.75;;;;;22.08;85.43;102025.09;5078316;28;45406;-81
2022/06/11 07:58:54;;;;;;;;;2.50;2.50;;;;;22.06;85.34;102026.81;5078242;27;45617;-81
2022/06/11 08:01:20;;;;;;;;;2.00;2.00;;;;;22.13;85.69;102027.81;5078707;27;45370;-81
2022/06/11 08:03:46;;;;;;;;;2.25;2.25;;;;;22.10;85.73;102023.38;5060162;28;45442;-80
2022/06/11 08:06:12;;;;;;;;;2.25;2.25;;;;;22.00;84.75;102015.28;5078161;28;45267;-81
2022/06/11 08:08:38;;;;;;;;;3.00;1.25;;;;;21.87;85.89;102024.72;5077630;28;45306;-80
2022/06/11 08:11:05;;;;;;;;;2.50;2.00;;;;;21.80;86.54;102022.00;5059017;28;47700;-79
2022/06/11 08:13:32;;;;;;;;;5.00;3.75;;;;;21.75;87.32;102020.16;5077175;28;45719;-79
2022/06/11 08:15:59;;;;;;;;;3.00;2.50;;;;;21.87;87.50;102030.00;5077760;27;45460;-80
2022/06/11 08:18:25;;;;;;;;;2.00;2.00;;;;;21.92;87.90;102028.34;5078074;27;45334;-81
2022/06/11 08:20:51;;;;;;;;;2.00;2.00;;;;;21.96;87.21;102035.44;5076542;28;45268;-80
2022/06/11 08:23:18;;;;;;;;;4.50;2.00;;;;;21.90;87.23;102020.38;5077097;27;45308;-80
2022/06/11 08:25:44;;;;;;;;;4.00;3.50;;;;;22.08;87.04;102026.84;5082487;28;45398;-81
2022/06/11 08:28:12;;;;;;;;;2.00;1.00;;;;;22.17;86.64;102018.19;5078300;27;45456;-80
2022/06/11 08:30:39;;;;;;;;;3.50;2.00;;;;;22.27;86.34;102020.09;5080366;28;46216;-78
2022/06/11 08:33:05;;;;;;;;;1.75;1.00;;;;;22.28;85.36;102019.25;5080097;28;45694;-79
2022/06/11 08:35:34;;;;;;;;;3.50;2.75;;;;;22.26;85.06;102018.31;5079312;28;45374;-80
2022/06/11 08:38:00;;;;;;;;;6.50;3.75;;;;;22.35;85.49;102025.50;5078324;27;45573;-80
2022/06/11 08:40:37;;;;;;;;;5.50;3.50;;;;;22.36;85.40;102022.00;5080643;28;45300;-88
2022/06/11 08:43:30;;;;;;;;;4.00;2.00;;;;;22.25;86.29;102011.28;5079336;28;45349;-83
2022/06/11 08:46:22;;;;;;;;;2.00;2.00;;;;;22.30;87.20;102025.44;5077481;28;45292;-79
2022/06/11 08:48:59;;;;;;;;;3.75;2.25;;;;;22.29;87.09;102021.03;5052751;28;45622;-81
2022/06/11 08:51:33;;;;;;;;;4.75;3.75;;;;;22.22;88.16;102014.75;5038896;28;46015;-78
2022/06/11 08:54:04;;;;;;;;;3.00;3.00;;;;;22.18;89.10;102010.31;5055883;28;45173;-76
2022/06/11 08:56:53;;;;;;;;;3.50;3.00;;;;;22.20;88.97;102012.97;5056495;28;45353;-78
2022/06/11 08:59:43;;;;;;;;;7.00;4.00;;;;;22.18;90.03;102010.31;5061880;28;45519;-83
2022/06/11 09:02:33;;;;;;;;;4.00;3.75;;;;;22.14;90.12;102003.22;5075676;28;46121;-84
2022/06/11 09:05:17;;;;;;;;;4.00;4.00;;;;;22.02;90.44;101990.72;5074676;28;45809;-83
2022/06/11 09:07:51;;;;;;;;;3.50;3.00;;;;;22.05;89.91;101979.31;5075198;28;45417;-81
2022/06/11 09:10:51;;;;;;;;;3.00;3.00;;;;;22.18;90.50;102006.78;5038564;28;45363;-81
2022/06/11 09:13:44;;;;;;;;;6.75;4.25;;;;;22.23;90.03;102000.72;5059743;28;45549;-80
2022/06/11 09:16:35;;;;;;;;;22.00;11.00;;;;;22.28;90.51;101995.50;5042593;28;45920;-81
2022/06/11 09:19:21;;;;;;;;;5.75;5.00;;;;;22.33;90.44;102004.38;5077072;28;45237;-77
2022/06/11 09:22:14;;;;;;;;;16.00;8.75;;;;;22.49;90.21;102000.25;5064416;28;45280;-79
2022/06/11 09:25:12;;;;;;;;;3.50;2.75;;;;;22.62;89.45;101992.50;5076855;27;46592;-78
2022/06/11 09:27:54;;;;;;;;;6.75;5.00;;;;;22.66;88.72;101989.94;5076223;28;45251;-81
2022/06/11 09:30:25;;;;;;;;;3.50;3.50;;;;;22.80;90.38;101994.47;5057926;28;45507;-80
2022/06/11 09:33:02;;;;;;;;;4.75;4.00;;;;;22.94;88.61;101994.69;5075798;27;45348;-82
2022/06/11 09:35:43;;;;;;;;;7.25;4.25;;;;;23.07;86.81;101999.22;5058181;28;45619;-79
2022/06/11 09:38:27;;;;;;;;;4.50;3.00;;;;;23.17;86.29;102001.09;5076369;28;46310;-84
2022/06/11 09:41:37;;;;;;;;;5.00;4.00;;;;;23.28;85.64;101995.09;5075539;28;45232;-86
2022/06/11 09:44:26;;;;;;;;;6.75;5.00;;;;;23.34;84.89;101993.41;4972965;28;45470;-79
2022/06/11 09:47:27;;;;;;;;;5.75;4.50;;;;;23.40;84.12;101997.00;5058645;28;46068;-81
2022/06/11 09:50:16;;;;;;;;;4.50;4.00;;;;;23.40;82.85;101997.00;5050305;27;45505;-81
2022/06/11 09:52:57;;;;;;;;;4.25;4.25;;;;;23.37;83.72;101999.59;5057307;28;45244;-80
2022/06/11 09:55:35;;;;;;;;;7.75;5.00;;;;;23.20;83.76;101973.88;5079767;27;46792;-80
2022/06/11 09:58:16;;;;;;;;;7.00;3.50;;;;;23.37;83.31;101996.94;5074255;28;46352;-82
2022/06/11 10:00:48;;;;;;;;;8.25;3.75;;;;;23.40;83.33;101995.22;5076784;27;45365;-83
2022/06/11 10:03:30;;;;;;;;;4.00;4.00;;;;;23.36;82.80;101982.88;5061960;28;45836;-83
2022/06/11 10:06:14;;;;;;;;;4.25;4.00;;;;;23.52;82.24;102002.41;5078177;28;45264;-82
2022/06/11 10:08:59;;;;;;;;;3.00;3.00;;;;;23.56;81.59;101998.03;5089903;27;46951;-81
2022/06/11 10:11:46;;;;;;;;;3.75;3.75;;;;;23.44;81.07;101991.75;5076128;28;45494;-82
2022/06/11 10:14:29;;;;;;;;;3.00;3.00;;;;;23.43;81.98;102004.97;5052546;28;45245;-79
2022/06/11 10:17:16;;;;;;;;;3.00;2.25;;;;;23.40;81.26;102007.56;5070247;28;45407;-80
2022/06/11 10:20:00;;;;;;;;;6.75;5.75;;;;;23.32;82.11;101992.47;5077394;28;45334;-79
2022/06/11 10:22:32;;;;;;;;;5.50;3.75;;;;;23.42;81.50;102000.53;5077864;28;45517;-79
2022/06/11 10:25:19;;;;;;;;;3.75;3.25;;;;;23.50;80.82;101999.72;5078180;28;45520;-79
2022/06/11 10:27:54;;;;;;;;;6.25;6.00;;;;;23.58;81.34;101998.94;5079803;27;45448;-80
2022/06/11 10:30:34;;;;;;;;;8.00;6.75;;;;;23.73;80.79;102003.47;5077844;27;46072;-80
2022/06/11 10:33:05;;;;;;;;;6.00;4.00;;;;;23.87;79.94;101996.53;5075667;27;45389;-80
2022/06/11 10:35:42;;;;;;;;;6.00;3.00;;;;;23.92;79.08;101992.19;5079055;28;45358;-80
2022/06/11 10:38:36;;;;;;;;;5.00;5.00;;;;;24.00;78.89;101988.72;5079005;27;45202;-80
2022/06/11 10:41:06;;;;;;;;;6.50;5.25;;;;;23.97;79.73;101984.31;5059476;28;47128;-80
2022/06/11 10:43:47;;;;;;;;;4.50;4.00;;;;;23.95;78.39;101997.53;5060029;28;45785;-81
2022/06/11 10:46:12;;;;;;;;;6.50;6.00;;;;;23.81;78.56;101992.06;5078716;27;45608;-80
2022/06/11 10:48:39;;;;;;;;;6.75;5.25;;;;;23.72;78.72;101992.00;5078672;27;45541;-80
2022/06/11 10:51:27;;;;;;;;;7.25;4.00;;;;;23.56;77.85;101990.97;5062399;28;46237;-80
2022/06/11 10:54:03;;;;;;;;;4.00;4.00;;;;;23.55;78.49;101996.25;5081564;27;45477;-80
2022/06/11 10:56:40;;;;;;;;;5.75;4.00;;;;;23.58;79.96;101991.00;5087267;27;45489;-81
2022/06/11 10:59:15;;;;;;;;;4.50;4.50;;;;;23.58;79.98;101983.94;5077980;27;45246;-80
2022/06/11 11:01:50;;;;;;;;;4.50;4.50;;;;;23.59;78.56;101985.72;5079630;28;46147;-81
2022/06/11 11:04:37;;;;;;;;;3.50;2.75;;;;;23.69;75.87;101989.34;5078372;28;45611;-82
2022/06/11 11:07:16;;;;;;;;;4.00;4.00;;;;;23.61;74.94;101968.13;5059605;28;45203;-77
2022/06/11 11:09:42;;;;;;;;;3.00;3.00;;;;;23.64;74.22;101960.22;5061442;28;46765;-78
2022/06/11 11:12:19;;;;;;;;;1.50;1.50;;;;;23.73;73.45;101958.53;5056564;28;46979;-76
2022/06/11 11:14:46;;;;;;;;;4.75;2.00;;;;;23.83;75.35;101972.69;5070705;28;46175;-77
2022/06/11 11:17:44;;;;;;;;;3.00;3.00;;;;;23.94;73.69;101978.97;5085342;28;45300;-80
2022/06/11 11:20:29;;;;;;;;;2.00;2.00;;;;;23.96;72.27;101964.03;5068157;28;45580;-81
2022/06/11 11:22:59;;;;;;;;;2.75;2.75;;;;;23.88;72.52;101945.41;5087188;27;45443;-85
2022/06/11 11:25:31;;;;;;;;;5.50;3.00;;;;;24.00;71.57;101965.81;5089824;27;45611;-80
2022/06/11 11:27:59;;;;;;;;;6.00;3.00;;;;;24.09;71.62;101984.41;5080984;27;45386;-82
2022/06/11 11:30:39;;;;;;;;;4.75;4.00;;;;;24.10;71.23;101991.47;5082490;27;45410;-81
2022/06/11 11:33:24;;;;;;;;;2.00;2.00;;;;;24.20;69.30;101978.31;5078235;28;46908;-79
2022/06/11 11:36:00;;;;;;;;;3.00;2.00;;;;;24.27;68.65;101974.81;5078768;27;45388;-81
2022/06/11 11:38:27;;;;;;;;;2.00;2.00;;;;;24.37;67.73;101981.06;5079307;28;45402;-82
2022/06/11 11:40:59;;;;;;;;;2.00;2.00;;;;;24.33;67.52;101973.97;5083731;28;45585;-89
2022/06/11 11:43:36;;;;;;;;;2.25;2.25;;;;;24.27;66.07;101974.81;5084870;27;45302;-85
2022/06/11 11:46:11;;;;;;;;;3.25;3.25;;;;;24.32;68.65;101973.09;5080849;28;45730;-85
2022/06/11 11:48:46;;;;;;;;;2.00;2.00;;;;;24.41;69.26;101974.88;5053957;28;45431;-83